Izumo Princess — SXMB — position and weather

sailwx.info

Track history (hours):
 
Tides and Currents Weather Stations Pressure Air Temp Water Temp Dewpoint Dewpoint Depression Visibility Wind Speed Wind Dir Waves Ship Positions

Izumo Princess

Last reported at 2017-Dec-11 17:00 UTC. Time now 2017-Dec-14 15:21 UTC.
Position N 44°16' E 008°42'.

Length 229 m; draft 12.7 m.

Type: Tanker. MMSI: 240611000.

Date/timePositionNaut miles runAvg speedWind from/ knotsBaromVisibWave heightAir tempDewpointWater temp
2017-Dec-11 17:00N 44°16' E 008°42'1 1.2
2017-Dec-11 16:30N 44°17' E 008°42'1 1.9
2017-Dec-11 16:00N 44°18' E 008°42'1 1.7
2017-Dec-11 15:30N 44°19' E 008°42'1 1.1
2017-Dec-11 15:00N 44°19' E 008°43'1 2.7
2017-Dec-11 14:30N 44°18' E 008°42'2 3.9
2017-Dec-11 14:00N 44°16' E 008°41'2 3.8
2017-Dec-11 13:31N 44°14' E 008°41'0 0.8
2017-Dec-11 13:00N 44°15' E 008°41'1 1.0
2017-Dec-11 12:30N 44°15' E 008°41'0 0.8
2017-Dec-11 12:00N 44°15' E 008°40'1 1.1
2017-Dec-11 11:30N 44°16' E 008°40'1 1.5
2017-Dec-11 11:00N 44°17' E 008°40'1 2.2
2017-Dec-11 10:30N 44°18' E 008°40'2 4.6
2017-Dec-11 10:01N 44°20' E 008°41'3 5.3
2017-Dec-11 09:30N 44°19' E 008°45'5 9.3
2017-Dec-11 09:00N 44°14' E 008°42'510.2
2017-Dec-11 08:30N 44°10' E 008°38'5 9.8
2017-Dec-11 08:00N 44°06' E 008°35'510.0
2017-Dec-11 07:29N 44°01' E 008°31'511.0
2017-Dec-11 07:00N 43°57' E 008°27'611.2
2017-Dec-11 06:26N 43°51' E 008°23'37911.8
2017-Dec-09 22:13N 38°56' E 003°07'18912.0
2017-Dec-09 06:26N 37°12' W 000°14'2512.2
2017-Dec-09 04:25N 36°59' W 000°39'512.2
2017-Dec-09 04:00N 36°56' W 000°45'43311.4
2017-Dec-07 13:54N 37°15' W 009°47'912.9
2017-Dec-07 13:14N 37°24' W 009°49'313.0
2017-Dec-07 13:00N 37°27' W 009°50'712.7
2017-Dec-07 12:26N 37°34' W 009°52'612.8
2017-Dec-07 12:00N 37°39' W 009°54'712.8
2017-Dec-07 11:26N 37°46' W 009°55'612.6
2017-Dec-07 10:59N 37°52' W 009°56'612.7
2017-Dec-07 10:28N 37°58' W 009°59'612.9
2017-Dec-07 10:00N 38°04' W 010°01'612.8
2017-Dec-07 09:30N 38°10' W 010°03'713.1
2017-Dec-07 09:00N 38°16' W 010°04'612.9
2017-Dec-07 08:30N 38°23' W 010°06'612.5
2017-Dec-07 08:00N 38°29' W 010°08'612.8
2017-Dec-07 07:30N 38°35' W 010°10'612.7
2017-Dec-07 07:00N 38°41' W 010°12'612.4
2017-Dec-07 06:30N 38°47' W 010°12'612.5
2017-Dec-07 06:00N 38°54' W 010°12'612.9
2017-Dec-07 05:30N 39°00' W 010°12'612.7
2017-Dec-07 05:00N 39°07' W 010°13'712.6
2017-Dec-07 04:28N 39°13' W 010°14'  
2017-Dec-04 10:28N 50°18' W 001°12'910.0
2017-Dec-04 09:35N 50°20' W 000°59'4 9.3
2017-Dec-04 09:09N 50°21' W 000°53'2 9.0
2017-Dec-04 08:57N 50°22' W 000°50'4 8.9
2017-Dec-04 08:27N 50°23' W 000°43'11 9.3
2017-Dec-04 07:17N 50°25' W 000°27'310.3
2017-Dec-04 07:00N 50°26' W 000°22'611.1
2017-Dec-04 06:30N 50°27' W 000°14'612.0
2017-Dec-04 06:00N 50°29' W 000°05'612.9
2017-Dec-04 05:30N 50°31' E 000°05'713.6
2017-Dec-04 05:00N 50°33' E 000°16'714.0
2017-Dec-04 04:30N 50°34' E 000°26'714.0
2017-Dec-04 04:01N 50°36' E 000°37'713.8
2017-Dec-04 03:31N 50°41' E 000°45'713.4
2017-Dec-04 03:00N 50°44' E 000°54'612.8
2017-Dec-04 02:30N 50°48' E 001°02'612.2
2017-Dec-04 02:00N 50°52' E 001°10'611.4
2017-Dec-04 01:30N 50°55' E 001°18'510.3
2017-Dec-04 01:00N 50°59' E 001°23'5 9.8
2017-Dec-04 00:30N 51°03' E 001°28'5 9.5
2017-Dec-04 00:00N 51°06' E 001°33'5 9.4
2017-Dec-03 23:30N 51°09' E 001°39'510.2
2017-Dec-03 23:01N 51°13' E 001°45'611.4
2017-Dec-03 22:30N 51°18' E 001°49'612.8
2017-Dec-03 22:01N 51°23' E 001°53'713.8
2017-Dec-03 21:30N 51°29' E 002°00'714.4
2017-Dec-03 21:00N 51°34' E 002°08'180 9.9
2017-Dec-03 02:54N 54°23' E 000°23'513.6
2017-Dec-03 02:30N 54°24' E 000°14'713.7
2017-Dec-03 02:01N 54°27' E 000°03'713.7
2017-Dec-03 01:30N 54°29' W 000°08'713.7
2017-Dec-03 01:01N 54°31' W 000°19'1613.4
2017-Dec-02 23:50N 54°37' W 000°44'413.0
2017-Dec-02 23:30N 54°39' W 000°51'612.3
2017-Dec-02 23:01N 54°41' W 001°01'4 8.6
2017-Dec-02 22:31N 54°40' W 001°08'2 0.1
2017-Dec-01 22:18N 54°38' W 001°09'3 8.8
2017-Dec-01 22:00N 54°40' W 001°07'4 9.0
2017-Dec-01 21:30N 54°44' W 001°03'4 7.6
2017-Dec-01 21:00N 54°47' W 000°58'2 3.5
2017-Dec-01 20:30N 54°45' W 000°58'1 2.9
2017-Dec-01 20:00N 54°44' W 000°59'2 3.3
2017-Dec-01 19:30N 54°45' W 000°59'3 5.2
2017-Dec-01 19:00N 54°48' W 000°57'3 5.1
2017-Dec-01 18:30N 54°50' W 000°56'2 5.0
2017-Dec-01 18:00N 54°52' W 000°54'3 5.1
2017-Dec-01 17:30N 54°55' W 000°53'  
Track history (hours):
 
Tides and Currents Weather Stations Pressure Air Temp Water Temp Dewpoint Dewpoint Depression Visibility Wind Speed Wind Dir Waves Ship Positions

Izumo Princess

Last reported at 2017-Dec-11 17:00 UTC. Time now 2017-Dec-14 15:21 UTC.
Position N 44°16' E 008°42'.

Length 229 m; draft 12.7 m.

Type: Tanker. MMSI: 240611000.

Date/timePositionNaut miles runAvg speedWind from/ knotsBaromVisibWave heightAir tempDewpointWater temp
2017-Dec-11 17:00N 44°16' E 008°42'1 1.2
2017-Dec-11 16:30N 44°17' E 008°42'1 1.9
2017-Dec-11 16:00N 44°18' E 008°42'1 1.7
2017-Dec-11 15:30N 44°19' E 008°42'1 1.1
2017-Dec-11 15:00N 44°19' E 008°43'1 2.7
2017-Dec-11 14:30N 44°18' E 008°42'2 3.9
2017-Dec-11 14:00N 44°16' E 008°41'2 3.8
2017-Dec-11 13:31N 44°14' E 008°41'0 0.8
2017-Dec-11 13:00N 44°15' E 008°41'1 1.0
2017-Dec-11 12:30N 44°15' E 008°41'0 0.8
2017-Dec-11 12:00N 44°15' E 008°40'1 1.1
2017-Dec-11 11:30N 44°16' E 008°40'1 1.5
2017-Dec-11 11:00N 44°17' E 008°40'1 2.2
2017-Dec-11 10:30N 44°18' E 008°40'2 4.6
2017-Dec-11 10:01N 44°20' E 008°41'3 5.3
2017-Dec-11 09:30N 44°19' E 008°45'5 9.3
2017-Dec-11 09:00N 44°14' E 008°42'510.2
2017-Dec-11 08:30N 44°10' E 008°38'5 9.8
2017-Dec-11 08:00N 44°06' E 008°35'510.0
2017-Dec-11 07:29N 44°01' E 008°31'511.0
2017-Dec-11 07:00N 43°57' E 008°27'611.2
2017-Dec-11 06:26N 43°51' E 008°23'37911.8
2017-Dec-09 22:13N 38°56' E 003°07'18912.0
2017-Dec-09 06:26N 37°12' W 000°14'2512.2
2017-Dec-09 04:25N 36°59' W 000°39'512.2
2017-Dec-09 04:00N 36°56' W 000°45'43311.4
2017-Dec-07 13:54N 37°15' W 009°47'912.9
2017-Dec-07 13:14N 37°24' W 009°49'313.0
2017-Dec-07 13:00N 37°27' W 009°50'712.7
2017-Dec-07 12:26N 37°34' W 009°52'612.8
2017-Dec-07 12:00N 37°39' W 009°54'712.8
2017-Dec-07 11:26N 37°46' W 009°55'612.6
2017-Dec-07 10:59N 37°52' W 009°56'612.7
2017-Dec-07 10:28N 37°58' W 009°59'612.9
2017-Dec-07 10:00N 38°04' W 010°01'612.8
2017-Dec-07 09:30N 38°10' W 010°03'713.1
2017-Dec-07 09:00N 38°16' W 010°04'612.9
2017-Dec-07 08:30N 38°23' W 010°06'612.5
2017-Dec-07 08:00N 38°29' W 010°08'612.8
2017-Dec-07 07:30N 38°35' W 010°10'612.7
2017-Dec-07 07:00N 38°41' W 010°12'612.4
2017-Dec-07 06:30N 38°47' W 010°12'612.5
2017-Dec-07 06:00N 38°54' W 010°12'612.9
2017-Dec-07 05:30N 39°00' W 010°12'612.7
2017-Dec-07 05:00N 39°07' W 010°13'712.6
2017-Dec-07 04:28N 39°13' W 010°14'  
2017-Dec-04 10:28N 50°18' W 001°12'910.0
2017-Dec-04 09:35N 50°20' W 000°59'4 9.3
2017-Dec-04 09:09N 50°21' W 000°53'2 9.0
2017-Dec-04 08:57N 50°22' W 000°50'4 8.9
2017-Dec-04 08:27N 50°23' W 000°43'11 9.3
2017-Dec-04 07:17N 50°25' W 000°27'310.3
2017-Dec-04 07:00N 50°26' W 000°22'611.1
2017-Dec-04 06:30N 50°27' W 000°14'612.0
2017-Dec-04 06:00N 50°29' W 000°05'612.9
2017-Dec-04 05:30N 50°31' E 000°05'713.6
2017-Dec-04 05:00N 50°33' E 000°16'714.0
2017-Dec-04 04:30N 50°34' E 000°26'714.0
2017-Dec-04 04:01N 50°36' E 000°37'713.8
2017-Dec-04 03:31N 50°41' E 000°45'713.4
2017-Dec-04 03:00N 50°44' E 000°54'612.8
2017-Dec-04 02:30N 50°48' E 001°02'612.2
2017-Dec-04 02:00N 50°52' E 001°10'611.4
2017-Dec-04 01:30N 50°55' E 001°18'510.3
2017-Dec-04 01:00N 50°59' E 001°23'5 9.8
2017-Dec-04 00:30N 51°03' E 001°28'5 9.5
2017-Dec-04 00:00N 51°06' E 001°33'5 9.4
2017-Dec-03 23:30N 51°09' E 001°39'510.2
2017-Dec-03 23:01N 51°13' E 001°45'611.4
2017-Dec-03 22:30N 51°18' E 001°49'612.8
2017-Dec-03 22:01N 51°23' E 001°53'713.8
2017-Dec-03 21:30N 51°29' E 002°00'714.4
2017-Dec-03 21:00N 51°34' E 002°08'180 9.9
2017-Dec-03 02:54N 54°23' E 000°23'513.6
2017-Dec-03 02:30N 54°24' E 000°14'713.7
2017-Dec-03 02:01N 54°27' E 000°03'713.7
2017-Dec-03 01:30N 54°29' W 000°08'713.7
2017-Dec-03 01:01N 54°31' W 000°19'1613.4
2017-Dec-02 23:50N 54°37' W 000°44'413.0
2017-Dec-02 23:30N 54°39' W 000°51'612.3
2017-Dec-02 23:01N 54°41' W 001°01'4 8.6
2017-Dec-02 22:31N 54°40' W 001°08'2 0.1
2017-Dec-01 22:18N 54°38' W 001°09'3 8.8
2017-Dec-01 22:00N 54°40' W 001°07'4 9.0
2017-Dec-01 21:30N 54°44' W 001°03'4 7.6
2017-Dec-01 21:00N 54°47' W 000°58'2 3.5
2017-Dec-01 20:30N 54°45' W 000°58'1 2.9
2017-Dec-01 20:00N 54°44' W 000°59'2 3.3
2017-Dec-01 19:30N 54°45' W 000°59'3 5.2
2017-Dec-01 19:00N 54°48' W 000°57'3 5.1
2017-Dec-01 18:30N 54°50' W 000°56'2 5.0
2017-Dec-01 18:00N 54°52' W 000°54'3 5.1
2017-Dec-01 17:30N 54°55' W 000°53'  

Dump ship's entire track history